sensor_id;sensor_type;location;lat;lon;timestamp;temperature;humidity
62998;DHT22;55949;52.590;7.330;2024-02-21T00:00:33;9.70;99.90
62998;DHT22;55949;52.590;7.330;2024-02-21T00:01:34;9.80;99.90
62998;DHT22;55949;52.590;7.330;2024-02-21T00:02:35;9.80;99.90
62998;DHT22;55949;52.590;7.330;2024-02-21T00:03:36;9.80;99.90
62998;DHT22;55949;52.590;7.330;2024-02-21T00:04:37;9.80;99.90
62998;DHT22;55949;52.590;7.330;2024-02-21T00:05:39;9.80;99.90
62998;DHT22;55949;52.590;7.330;2024-02-21T00:06:40;9.80;99.90
62998;DHT22;55949;52.590;7.330;2024-02-21T00:07:42;9.80;99.90
62998;DHT22;55949;52.590;7.330;2024-02-21T00:08:44;9.80;99.90
62998;DHT22;55949;52.590;7.330;2024-02-21T00:09:45;9.80;99.90
62998;DHT22;55949;52.590;7.330;2024-02-21T00:10:45;9.80;99.90
62998;DHT22;55949;52.590;7.330;2024-02-21T00:11:47;9.80;99.90
62998;DHT22;55949;52.590;7.330;2024-02-21T00:12:48;9.80;99.90
62998;DHT22;55949;52.590;7.330;2024-02-21T00:13:48;9.80;99.90
62998;DHT22;55949;52.590;7.330;2024-02-21T00:14:50;9.80;99.90
62998;DHT22;55949;52.590;7.330;2024-02-21T00:15:51;9.70;99.90
62998;DHT22;55949;52.590;7.330;2024-02-21T00:16:53;9.70;99.90
62998;DHT22;55949;52.590;7.330;2024-02-21T00:17:54;9.70;99.90
62998;DHT22;55949;52.590;7.330;2024-02-21T00:18:57;9.70;99.90
62998;DHT22;55949;52.590;7.330;2024-02-21T00:19:58;9.70;99.90
62998;DHT22;55949;52.590;7.330;2024-02-21T00:20:59;9.70;99.90
62998;DHT22;55949;52.590;7.330;2024-02-21T00:22:02;9.70;99.90
62998;DHT22;55949;52.590;7.330;2024-02-21T00:23:03;9.80;99.90
62998;DHT22;55949;52.590;7.330;2024-02-21T00:24:04;9.90;99.90
62998;DHT22;55949;52.590;7.330;2024-02-21T00:25:05;9.80;99.90
62998;DHT22;55949;52.590;7.330;2024-02-21T00:26:06;9.80;99.90
62998;DHT22;55949;52.590;7.330;2024-02-21T00:27:08;9.80;99.90
62998;DHT22;55949;52.590;7.330;2024-02-21T00:28:09;9.80;99.90
62998;DHT22;55949;52.590;7.330;2024-02-21T00:29:09;9.70;99.90
62998;DHT22;55949;52.590;7.330;2024-02-21T00:30:11;9.70;99.90
62998;DHT22;55949;52.590;7.330;2024-02-21T00:31:12;9.70;99.90
62998;DHT22;55949;52.590;7.330;2024-02-21T00:32:12;9.80;99.90
62998;DHT22;55949;52.590;7.330;2024-02-21T00:33:14;9.80;99.90
62998;DHT22;55949;52.590;7.330;2024-02-21T00:34:15;9.80;99.90
62998;DHT22;55949;52.590;7.330;2024-02-21T00:35:16;9.80;99.90
62998;DHT22;55949;52.590;7.330;2024-02-21T00:36:17;9.90;99.90
62998;DHT22;55949;52.590;7.330;2024-02-21T00:37:18;9.90;99.90
62998;DHT22;55949;52.590;7.330;2024-02-21T00:38:19;9.80;99.90
62998;DHT22;55949;52.590;7.330;2024-02-21T00:39:21;9.80;99.90
62998;DHT22;55949;52.590;7.330;2024-02-21T00:40:22;9.80;99.90
62998;DHT22;55949;52.590;7.330;2024-02-21T00:41:23;9.80;99.90
62998;DHT22;55949;52.590;7.330;2024-02-21T00:42:24;9.80;99.90
62998;DHT22;55949;52.590;7.330;2024-02-21T00:43:26;9.70;99.90
62998;DHT22;55949;52.590;7.330;2024-02-21T00:44:27;9.70;99.90
62998;DHT22;55949;52.590;7.330;2024-02-21T00:45:28;9.70;99.90
62998;DHT22;55949;52.590;7.330;2024-02-21T00:46:29;9.70;99.90
62998;DHT22;55949;52.590;7.330;2024-02-21T00:47:30;9.70;99.90
62998;DHT22;55949;52.590;7.330;2024-02-21T00:48:32;9.70;99.90
62998;DHT22;55949;52.590;7.330;2024-02-21T00:49:32;9.70;99.90
62998;DHT22;55949;52.590;7.330;2024-02-21T00:50:34;9.70;99.90
62998;DHT22;55949;52.590;7.330;2024-02-21T00:51:35;9.70;99.90
62998;DHT22;55949;52.590;7.330;2024-02-21T00:52:36;9.70;99.90
62998;DHT22;55949;52.590;7.330;2024-02-21T00:53:37;9.80;99.90
62998;DHT22;55949;52.590;7.330;2024-02-21T00:54:39;9.70;99.90
62998;DHT22;55949;52.590;7.330;2024-02-21T00:55:40;9.80;99.90
62998;DHT22;55949;52.590;7.330;2024-02-21T00:56:42;9.70;99.90
62998;DHT22;55949;52.590;7.330;2024-02-21T00:57:43;9.70;99.90
62998;DHT22;55949;52.590;7.330;2024-02-21T00:58:45;9.70;99.90
62998;DHT22;55949;52.590;7.330;2024-02-21T00:59:47;9.70;99.90
62998;DHT22;55949;52.590;7.330;2024-02-21T01:00:48;9.70;99.90
62998;DHT22;55949;52.590;7.330;2024-02-21T01:01:49;9.70;99.90
62998;DHT22;55949;52.590;7.330;2024-02-21T01:02:49;9.70;99.90
62998;DHT22;55949;52.590;7.330;2024-02-21T01:03:51;9.70;99.90
62998;DHT22;55949;52.590;7.330;2024-02-21T01:04:54;9.70;99.90
62998;DHT22;55949;52.590;7.330;2024-02-21T01:05:55;9.80;99.90
62998;DHT22;55949;52.590;7.330;2024-02-21T01:06:57;9.80;99.90
62998;DHT22;55949;52.590;7.330;2024-02-21T01:07:58;9.80;99.90
62998;DHT22;55949;52.590;7.330;2024-02-21T01:08:59;9.80;99.90
62998;DHT22;55949;52.590;7.330;2024-02-21T01:10:02;9.90;99.90
62998;DHT22;55949;52.590;7.330;2024-02-21T01:11:04;9.90;99.90
62998;DHT22;55949;52.590;7.330;2024-02-21T01:12:07;9.80;99.90
62998;DHT22;55949;52.590;7.330;2024-02-21T01:13:09;9.80;99.90
62998;DHT22;55949;52.590;7.330;2024-02-21T01:14:10;9.80;99.90
62998;DHT22;55949;52.590;7.330;2024-02-21T01:15:11;9.90;99.90
62998;DHT22;55949;52.590;7.330;2024-02-21T01:16:12;9.90;99.90
62998;DHT22;55949;52.590;7.330;2024-02-21T01:17:13;9.90;99.90
62998;DHT22;55949;52.590;7.330;2024-02-21T01:18:15;9.90;99.90
62998;DHT22;55949;52.590;7.330;2024-02-21T01:19:16;9.90;99.90
62998;DHT22;55949;52.590;7.330;2024-02-21T01:20:17;9.90;99.90
62998;DHT22;55949;52.590;7.330;2024-02-21T01:21:18;9.90;99.90
62998;DHT22;55949;52.590;7.330;2024-02-21T01:22:19;9.90;99.90
62998;DHT22;55949;52.590;7.330;2024-02-21T01:23:19;9.90;99.90
62998;DHT22;55949;52.590;7.330;2024-02-21T01:24:20;9.90;99.90
62998;DHT22;55949;52.590;7.330;2024-02-21T01:25:22;9.80;99.90
62998;DHT22;55949;52.590;7.330;2024-02-21T01:26:24;9.90;99.90
62998;DHT22;55949;52.590;7.330;2024-02-21T01:27:25;10.00;99.90
62998;DHT22;55949;52.590;7.330;2024-02-21T01:28:26;10.00;99.90
62998;DHT22;55949;52.590;7.330;2024-02-21T01:29:27;10.10;99.90
62998;DHT22;55949;52.590;7.330;2024-02-21T01:30:28;10.10;99.90
62998;DHT22;55949;52.590;7.330;2024-02-21T01:31:29;10.10;99.90
62998;DHT22;55949;52.590;7.330;2024-02-21T01:32:30;10.20;99.90
62998;DHT22;55949;52.590;7.330;2024-02-21T01:33:31;10.10;99.90
62998;DHT22;55949;52.590;7.330;2024-02-21T01:34:35;10.00;99.90
62998;DHT22;55949;52.590;7.330;2024-02-21T01:35:36;10.00;99.90
62998;DHT22;55949;52.590;7.330;2024-02-21T01:36:37;10.00;99.90
62998;DHT22;55949;52.590;7.330;2024-02-21T01:37:38;10.00;99.90
62998;DHT22;55949;52.590;7.330;2024-02-21T01:38:39;10.00;99.90
62998;DHT22;55949;52.590;7.330;2024-02-21T01:39:40;10.00;99.90
62998;DHT22;55949;52.590;7.330;2024-02-21T01:40:41;10.10;99.90
62998;DHT22;55949;52.590;7.330;2024-02-21T01:41:42;10.20;99.90
62998;DHT22;55949;52.590;7.330;2024-02-21T01:42:42;10.20;99.90
62998;DHT22;55949;52.590;7.330;2024-02-21T01:43:43;10.20;99.90
62998;DHT22;55949;52.590;7.330;2024-02-21T01:44:44;10.10;99.90
62998;DHT22;55949;52.590;7.330;2024-02-21T01:45:53;10.10;99.90
62998;DHT22;55949;52.590;7.330;2024-02-21T01:46:55;10.10;99.90
62998;DHT22;55949;52.590;7.330;2024-02-21T01:47:56;10.10;99.90
62998;DHT22;55949;52.590;7.330;2024-02-21T01:48:57;10.20;99.90
62998;DHT22;55949;52.590;7.330;2024-02-21T01:49:58;10.10;99.90
62998;DHT22;55949;52.590;7.330;2024-02-21T01:50:59;10.00;99.90
62998;DHT22;55949;52.590;7.330;2024-02-21T01:52:02;10.00;99.90
62998;DHT22;55949;52.590;7.330;2024-02-21T01:53:04;10.10;99.90
62998;DHT22;55949;52.590;7.330;2024-02-21T01:54:05;10.10;99.90
62998;DHT22;55949;52.590;7.330;2024-02-21T01:55:06;10.20;99.90
62998;DHT22;55949;52.590;7.330;2024-02-21T01:56:08;10.10;99.90
62998;DHT22;55949;52.590;7.330;2024-02-21T01:57:09;10.10;99.90
62998;DHT22;55949;52.590;7.330;2024-02-21T01:58:11;10.10;99.90
62998;DHT22;55949;52.590;7.330;2024-02-21T01:59:15;10.00;99.90
62998;DHT22;55949;52.590;7.330;2024-02-21T02:00:16;10.10;99.90
62998;DHT22;55949;52.590;7.330;2024-02-21T02:01:19;10.10;99.90
62998;DHT22;55949;52.590;7.330;2024-02-21T02:02:21;10.10;99.90
62998;DHT22;55949;52.590;7.330;2024-02-21T02:03:22;10.00;99.90
62998;DHT22;55949;52.590;7.330;2024-02-21T02:04:23;10.00;99.90
62998;DHT22;55949;52.590;7.330;2024-02-21T02:05:25;10.00;99.90
62998;DHT22;55949;52.590;7.330;2024-02-21T02:06:27;10.10;99.90
62998;DHT22;55949;52.590;7.330;2024-02-21T02:07:28;10.10;99.90
62998;DHT22;55949;52.590;7.330;2024-02-21T02:08:29;10.10;99.90
62998;DHT22;55949;52.590;7.330;2024-02-21T02:09:30;10.00;99.90
62998;DHT22;55949;52.590;7.330;2024-02-21T02:10:31;10.00;99.90
62998;DHT22;55949;52.590;7.330;2024-02-21T02:11:32;10.00;99.90
62998;DHT22;55949;52.590;7.330;2024-02-21T02:12:33;10.00;99.90
62998;DHT22;55949;52.590;7.330;2024-02-21T02:13:35;10.00;99.90
62998;DHT22;55949;52.590;7.330;2024-02-21T02:14:36;10.00;99.90
62998;DHT22;55949;52.590;7.330;2024-02-21T02:15:45;10.10;99.90
62998;DHT22;55949;52.590;7.330;2024-02-21T02:16:47;10.10;99.90
62998;DHT22;55949;52.590;7.330;2024-02-21T02:17:50;10.10;99.90
62998;DHT22;55949;52.590;7.330;2024-02-21T02:18:51;10.00;99.90
62998;DHT22;55949;52.590;7.330;2024-02-21T02:19:52;10.00;99.90
62998;DHT22;55949;52.590;7.330;2024-02-21T02:20:53;10.00;99.90
62998;DHT22;55949;52.590;7.330;2024-02-21T02:22:06;10.00;99.90
62998;DHT22;55949;52.590;7.330;2024-02-21T02:23:12;10.00;99.90
62998;DHT22;55949;52.590;7.330;2024-02-21T02:24:14;10.00;99.90
62998;DHT22;55949;52.590;7.330;2024-02-21T02:25:16;10.00;99.90
62998;DHT22;55949;52.590;7.330;2024-02-21T02:26:16;9.90;99.90
62998;DHT22;55949;52.590;7.330;2024-02-21T02:27:17;9.90;99.90
62998;DHT22;55949;52.590;7.330;2024-02-21T02:28:19;9.90;99.90
62998;DHT22;55949;52.590;7.330;2024-02-21T02:29:20;9.90;99.90
62998;DHT22;55949;52.590;7.330;2024-02-21T02:30:21;10.00;99.90
62998;DHT22;55949;52.590;7.330;2024-02-21T02:31:22;9.90;99.90
62998;DHT22;55949;52.590;7.330;2024-02-21T02:32:23;10.00;99.90
62998;DHT22;55949;52.590;7.330;2024-02-21T02:33:24;10.00;99.90
62998;DHT22;55949;52.590;7.330;2024-02-21T02:34:25;10.00;99.90
62998;DHT22;55949;52.590;7.330;2024-02-21T02:35:26;10.00;99.90
62998;DHT22;55949;52.590;7.330;2024-02-21T02:36:27;10.00;99.90
62998;DHT22;55949;52.590;7.330;2024-02-21T02:37:27;10.00;99.90
62998;DHT22;55949;52.590;7.330;2024-02-21T02:38:28;10.00;99.90
62998;DHT22;55949;52.590;7.330;2024-02-21T02:39:29;10.20;99.90
62998;DHT22;55949;52.590;7.330;2024-02-21T02:40:33;10.10;99.90
62998;DHT22;55949;52.590;7.330;2024-02-21T02:41:37;10.10;99.90
62998;DHT22;55949;52.590;7.330;2024-02-21T02:42:37;10.00;99.90
62998;DHT22;55949;52.590;7.330;2024-02-21T02:43:38;10.00;99.90
62998;DHT22;55949;52.590;7.330;2024-02-21T02:44:39;10.00;99.90
62998;DHT22;55949;52.590;7.330;2024-02-21T02:45:40;10.00;99.90
62998;DHT22;55949;52.590;7.330;2024-02-21T02:46:41;9.90;99.90
62998;DHT22;55949;52.590;7.330;2024-02-21T02:47:44;9.80;99.90
62998;DHT22;55949;52.590;7.330;2024-02-21T02:48:46;9.90;99.90
62998;DHT22;55949;52.590;7.330;2024-02-21T02:49:47;9.90;99.90
62998;DHT22;55949;52.590;7.330;2024-02-21T02:50:51;9.80;99.90
62998;DHT22;55949;52.590;7.330;2024-02-21T02:51:52;9.80;99.90
62998;DHT22;55949;52.590;7.330;2024-02-21T02:52:53;9.80;99.90
62998;DHT22;55949;52.590;7.330;2024-02-21T02:53:54;9.80;99.90
62998;DHT22;55949;52.590;7.330;2024-02-21T02:54:55;9.80;99.90
62998;DHT22;55949;52.590;7.330;2024-02-21T02:55:56;9.80;99.90
62998;DHT22;55949;52.590;7.330;2024-02-21T02:56:57;9.80;99.90
62998;DHT22;55949;52.590;7.330;2024-02-21T02:57:58;9.80;99.90
62998;DHT22;55949;52.590;7.330;2024-02-21T02:59:00;9.80;99.90
62998;DHT22;55949;52.590;7.330;2024-02-21T03:00:00;9.80;99.90
62998;DHT22;55949;52.590;7.330;2024-02-21T03:01:02;9.80;99.90
62998;DHT22;55949;52.590;7.330;2024-02-21T03:02:03;9.80;99.90
62998;DHT22;55949;52.590;7.330;2024-02-21T03:03:04;9.80;99.90
62998;DHT22;55949;52.590;7.330;2024-02-21T03:04:05;9.90;99.90
62998;DHT22;55949;52.590;7.330;2024-02-21T03:05:32;9.70;99.90
62998;DHT22;55949;52.590;7.330;2024-02-21T03:06:33;9.60;99.90
62998;DHT22;55949;52.590;7.330;2024-02-21T03:07:34;9.60;99.90
62998;DHT22;55949;52.590;7.330;2024-02-21T03:08:35;9.50;99.90
62998;DHT22;55949;52.590;7.330;2024-02-21T03:09:35;9.50;99.90
62998;DHT22;55949;52.590;7.330;2024-02-21T03:10:36;9.50;99.90
62998;DHT22;55949;52.590;7.330;2024-02-21T03:11:37;9.40;99.90
62998;DHT22;55949;52.590;7.330;2024-02-21T03:12:40;9.50;99.90
62998;DHT22;55949;52.590;7.330;2024-02-21T03:13:41;9.50;99.90
62998;DHT22;55949;52.590;7.330;2024-02-21T03:14:42;9.50;99.90
62998;DHT22;55949;52.590;7.330;2024-02-21T03:15:43;9.40;99.90
62998;DHT22;55949;52.590;7.330;2024-02-21T03:16:45;9.50;99.90
62998;DHT22;55949;52.590;7.330;2024-02-21T03:17:47;9.50;99.90
62998;DHT22;55949;52.590;7.330;2024-02-21T03:18:48;9.50;99.90
62998;DHT22;55949;52.590;7.330;2024-02-21T03:19:49;9.40;99.90
62998;DHT22;55949;52.590;7.330;2024-02-21T03:20:50;9.40;99.90
62998;DHT22;55949;52.590;7.330;2024-02-21T03:21:52;9.40;99.90
62998;DHT22;55949;52.590;7.330;2024-02-21T03:22:53;9.40;99.90
62998;DHT22;55949;52.590;7.330;2024-02-21T03:23:53;9.30;99.90
62998;DHT22;55949;52.590;7.330;2024-02-21T03:24:54;9.30;99.90
62998;DHT22;55949;52.590;7.330;2024-02-21T03:25:55;9.30;99.90
62998;DHT22;55949;52.590;7.330;2024-02-21T03:26:56;9.40;99.90
62998;DHT22;55949;52.590;7.330;2024-02-21T03:27:57;9.50;99.90
62998;DHT22;55949;52.590;7.330;2024-02-21T03:28:58;9.30;99.90
62998;DHT22;55949;52.590;7.330;2024-02-21T03:29:59;9.30;99.90
62998;DHT22;55949;52.590;7.330;2024-02-21T03:31:00;9.40;99.90
62998;DHT22;55949;52.590;7.330;2024-02-21T03:32:01;9.40;99.90
62998;DHT22;55949;52.590;7.330;2024-02-21T03:33:02;9.40;99.90
62998;DHT22;55949;52.590;7.330;2024-02-21T03:34:04;9.30;99.90
62998;DHT22;55949;52.590;7.330;2024-02-21T03:35:05;9.20;99.90
62998;DHT22;55949;52.590;7.330;2024-02-21T03:36:06;9.20;99.90
62998;DHT22;55949;52.590;7.330;2024-02-21T03:37:18;9.30;99.90
62998;DHT22;55949;52.590;7.330;2024-02-21T03:38:30;9.40;99.90
62998;DHT22;55949;52.590;7.330;2024-02-21T03:39:36;9.40;99.90
62998;DHT22;55949;52.590;7.330;2024-02-21T03:40:44;9.40;99.90
62998;DHT22;55949;52.590;7.330;2024-02-21T03:41:49;9.40;99.90
62998;DHT22;55949;52.590;7.330;2024-02-21T03:42:53;9.40;99.90
62998;DHT22;55949;52.590;7.330;2024-02-21T03:43:55;9.40;99.90
62998;DHT22;55949;52.590;7.330;2024-02-21T03:45:00;9.40;99.90
62998;DHT22;55949;52.590;7.330;2024-02-21T03:46:01;9.40;99.90
62998;DHT22;55949;52.590;7.330;2024-02-21T03:47:02;9.40;99.90
62998;DHT22;55949;52.590;7.330;2024-02-21T03:48:04;9.30;99.90
62998;DHT22;55949;52.590;7.330;2024-02-21T03:49:05;9.30;99.90
62998;DHT22;55949;52.590;7.330;2024-02-21T03:50:07;9.40;99.90
62998;DHT22;55949;52.590;7.330;2024-02-21T03:51:08;9.40;99.90
62998;DHT22;55949;52.590;7.330;2024-02-21T03:52:10;9.40;99.90
62998;DHT22;55949;52.590;7.330;2024-02-21T03:53:11;9.40;99.90
62998;DHT22;55949;52.590;7.330;2024-02-21T03:54:11;9.50;99.90
62998;DHT22;55949;52.590;7.330;2024-02-21T03:55:12;9.60;99.90
62998;DHT22;55949;52.590;7.330;2024-02-21T03:56:13;9.50;99.90
62998;DHT22;55949;52.590;7.330;2024-02-21T03:57:14;9.50;99.90
62998;DHT22;55949;52.590;7.330;2024-02-21T03:58:15;9.50;99.90
62998;DHT22;55949;52.590;7.330;2024-02-21T03:59:16;9.50;99.90
62998;DHT22;55949;52.590;7.330;2024-02-21T04:00:17;9.50;99.90
62998;DHT22;55949;52.590;7.330;2024-02-21T04:01:18;9.50;99.90
62998;DHT22;55949;52.590;7.330;2024-02-21T04:02:20;9.60;99.90
62998;DHT22;55949;52.590;7.330;2024-02-21T04:03:21;9.60;99.90
62998;DHT22;55949;52.590;7.330;2024-02-21T04:04:23;9.50;99.90
62998;DHT22;55949;52.590;7.330;2024-02-21T04:05:23;9.50;99.90
62998;DHT22;55949;52.590;7.330;2024-02-21T04:06:24;9.60;99.90
62998;DHT22;55949;52.590;7.330;2024-02-21T04:07:26;9.60;99.90
62998;DHT22;55949;52.590;7.330;2024-02-21T04:08:27;9.50;99.90
62998;DHT22;55949;52.590;7.330;2024-02-21T04:09:28;9.40;99.90
62998;DHT22;55949;52.590;7.330;2024-02-21T04:10:29;9.30;99.90
62998;DHT22;55949;52.590;7.330;2024-02-21T04:11:32;9.30;99.90
62998;DHT22;55949;52.590;7.330;2024-02-21T04:12:33;9.20;99.90
62998;DHT22;55949;52.590;7.330;2024-02-21T04:13:34;9.20;99.90
62998;DHT22;55949;52.590;7.330;2024-02-21T04:14:35;9.20;99.90
62998;DHT22;55949;52.590;7.330;2024-02-21T04:15:36;9.20;99.90
62998;DHT22;55949;52.590;7.330;2024-02-21T04:16:37;9.20;99.90
62998;DHT22;55949;52.590;7.330;2024-02-21T04:17:39;9.20;99.90
62998;DHT22;55949;52.590;7.330;2024-02-21T04:18:40;9.20;99.90
62998;DHT22;55949;52.590;7.330;2024-02-21T04:19:41;9.30;99.90
62998;DHT22;55949;52.590;7.330;2024-02-21T04:20:42;9.30;99.90
62998;DHT22;55949;52.590;7.330;2024-02-21T04:21:44;9.40;99.90
62998;DHT22;55949;52.590;7.330;2024-02-21T04:22:48;9.30;99.90
62998;DHT22;55949;52.590;7.330;2024-02-21T04:23:52;9.30;99.90
62998;DHT22;55949;52.590;7.330;2024-02-21T04:24:52;9.30;99.90
62998;DHT22;55949;52.590;7.330;2024-02-21T04:25:53;9.30;99.90
62998;DHT22;55949;52.590;7.330;2024-02-21T04:26:55;9.40;99.90
62998;DHT22;55949;52.590;7.330;2024-02-21T04:27:56;9.40;99.90
62998;DHT22;55949;52.590;7.330;2024-02-21T04:28:56;9.50;99.90
62998;DHT22;55949;52.590;7.330;2024-02-21T04:29:57;9.50;99.90
62998;DHT22;55949;52.590;7.330;2024-02-21T04:30:58;9.60;99.90
62998;DHT22;55949;52.590;7.330;2024-02-21T04:32:01;9.60;99.90
62998;DHT22;55949;52.590;7.330;2024-02-21T04:33:02;9.60;99.90
62998;DHT22;55949;52.590;7.330;2024-02-21T04:34:03;9.50;99.90
62998;DHT22;55949;52.590;7.330;2024-02-21T04:35:04;9.40;99.90
62998;DHT22;55949;52.590;7.330;2024-02-21T04:36:05;9.40;99.90
62998;DHT22;55949;52.590;7.330;2024-02-21T04:37:06;9.40;99.90
62998;DHT22;55949;52.590;7.330;2024-02-21T04:38:08;9.50;99.90
62998;DHT22;55949;52.590;7.330;2024-02-21T04:39:09;9.50;99.90
62998;DHT22;55949;52.590;7.330;2024-02-21T04:40:12;9.50;99.90
62998;DHT22;55949;52.590;7.330;2024-02-21T04:41:14;9.50;99.90
62998;DHT22;55949;52.590;7.330;2024-02-21T04:42:15;9.50;99.90
62998;DHT22;55949;52.590;7.330;2024-02-21T04:43:16;9.50;99.90
62998;DHT22;55949;52.590;7.330;2024-02-21T04:44:17;9.50;99.90
62998;DHT22;55949;52.590;7.330;2024-02-21T04:45:22;9.50;99.90
62998;DHT22;55949;52.590;7.330;2024-02-21T04:46:23;9.40;99.90
62998;DHT22;55949;52.590;7.330;2024-02-21T04:47:26;9.40;99.90
62998;DHT22;55949;52.590;7.330;2024-02-21T04:48:27;9.40;99.90
62998;DHT22;55949;52.590;7.330;2024-02-21T04:49:29;9.40;99.90
62998;DHT22;55949;52.590;7.330;2024-02-21T04:50:30;9.40;99.90
62998;DHT22;55949;52.590;7.330;2024-02-21T04:51:31;9.30;99.90
62998;DHT22;55949;52.590;7.330;2024-02-21T04:52:32;9.30;99.90
62998;DHT22;55949;52.590;7.330;2024-02-21T04:53:33;9.40;99.90
62998;DHT22;55949;52.590;7.330;2024-02-21T04:54:34;9.50;99.90
62998;DHT22;55949;52.590;7.330;2024-02-21T04:55:36;9.50;99.90
62998;DHT22;55949;52.590;7.330;2024-02-21T04:56:36;9.60;99.90
62998;DHT22;55949;52.590;7.330;2024-02-21T04:57:38;9.50;99.90
62998;DHT22;55949;52.590;7.330;2024-02-21T04:58:40;9.50;99.90
62998;DHT22;55949;52.590;7.330;2024-02-21T04:59:41;9.60;99.90
62998;DHT22;55949;52.590;7.330;2024-02-21T05:00:47;9.60;99.90
62998;DHT22;55949;52.590;7.330;2024-02-21T05:01:59;9.60;99.90
62998;DHT22;55949;52.590;7.330;2024-02-21T05:03:01;9.60;99.90
62998;DHT22;55949;52.590;7.330;2024-02-21T05:04:02;9.60;99.90
62998;DHT22;55949;52.590;7.330;2024-02-21T05:05:03;9.60;99.90
62998;DHT22;55949;52.590;7.330;2024-02-21T05:06:04;9.60;99.90
62998;DHT22;55949;52.590;7.330;2024-02-21T05:07:06;9.60;99.90
62998;DHT22;55949;52.590;7.330;2024-02-21T05:08:08;9.70;99.90
62998;DHT22;55949;52.590;7.330;2024-02-21T05:09:12;9.80;99.90
62998;DHT22;55949;52.590;7.330;2024-02-21T05:10:13;9.70;99.90
62998;DHT22;55949;52.590;7.330;2024-02-21T05:11:15;9.80;99.90
62998;DHT22;55949;52.590;7.330;2024-02-21T05:12:17;9.80;99.90
62998;DHT22;55949;52.590;7.330;2024-02-21T05:13:19;9.80;99.90
62998;DHT22;55949;52.590;7.330;2024-02-21T05:14:19;9.80;99.90
62998;DHT22;55949;52.590;7.330;2024-02-21T05:15:20;9.80;99.90
62998;DHT22;55949;52.590;7.330;2024-02-21T05:16:21;9.80;99.90
62998;DHT22;55949;52.590;7.330;2024-02-21T05:17:22;9.80;99.90
62998;DHT22;55949;52.590;7.330;2024-02-21T05:18:23;9.80;99.90
62998;DHT22;55949;52.590;7.330;2024-02-21T05:19:24;9.90;99.90
62998;DHT22;55949;52.590;7.330;2024-02-21T05:20:25;9.80;99.90
62998;DHT22;55949;52.590;7.330;2024-02-21T05:21:26;9.80;99.90
62998;DHT22;55949;52.590;7.330;2024-02-21T05:22:28;9.80;99.90
62998;DHT22;55949;52.590;7.330;2024-02-21T05:23:29;9.80;99.90
62998;DHT22;55949;52.590;7.330;2024-02-21T05:24:30;9.80;99.90
62998;DHT22;55949;52.590;7.330;2024-02-21T05:25:31;9.70;99.90
62998;DHT22;55949;52.590;7.330;2024-02-21T05:26:32;9.70;99.90
62998;DHT22;55949;52.590;7.330;2024-02-21T05:27:32;9.70;99.90
62998;DHT22;55949;52.590;7.330;2024-02-21T05:28:33;9.80;99.90
62998;DHT22;55949;52.590;7.330;2024-02-21T05:29:34;9.80;99.90
62998;DHT22;55949;52.590;7.330;2024-02-21T05:30:35;9.90;99.90
62998;DHT22;55949;52.590;7.330;2024-02-21T05:31:56;9.90;99.90
62998;DHT22;55949;52.590;7.330;2024-02-21T05:33:07;9.90;99.90
62998;DHT22;55949;52.590;7.330;2024-02-21T05:34:07;9.80;99.90
62998;DHT22;55949;52.590;7.330;2024-02-21T05:35:09;9.90;99.90
62998;DHT22;55949;52.590;7.330;2024-02-21T05:36:10;9.90;99.90
62998;DHT22;55949;52.590;7.330;2024-02-21T05:37:10;9.80;99.90
62998;DHT22;55949;52.590;7.330;2024-02-21T05:38:11;9.80;99.90
62998;DHT22;55949;52.590;7.330;2024-02-21T05:39:13;9.90;99.90
62998;DHT22;55949;52.590;7.330;2024-02-21T05:40:15;9.90;99.90
62998;DHT22;55949;52.590;7.330;2024-02-21T05:41:15;9.90;99.90
62998;DHT22;55949;52.590;7.330;2024-02-21T05:42:16;9.90;99.90
62998;DHT22;55949;52.590;7.330;2024-02-21T05:43:17;9.90;99.90
62998;DHT22;55949;52.590;7.330;2024-02-21T05:44:18;9.70;99.90
62998;DHT22;55949;52.590;7.330;2024-02-21T05:45:19;9.70;99.90
62998;DHT22;55949;52.590;7.330;2024-02-21T05:46:20;9.70;99.90
62998;DHT22;55949;52.590;7.330;2024-02-21T05:47:21;9.70;99.90
62998;DHT22;55949;52.590;7.330;2024-02-21T05:48:22;9.70;99.90
62998;DHT22;55949;52.590;7.330;2024-02-21T05:49:23;9.70;99.90
62998;DHT22;55949;52.590;7.330;2024-02-21T05:50:24;9.70;99.90
62998;DHT22;55949;52.590;7.330;2024-02-21T05:51:25;9.80;99.90
62998;DHT22;55949;52.590;7.330;2024-02-21T05:52:25;9.80;99.90
62998;DHT22;55949;52.590;7.330;2024-02-21T05:53:26;9.80;99.90
62998;DHT22;55949;52.590;7.330;2024-02-21T05:54:27;9.80;99.90
62998;DHT22;55949;52.590;7.330;2024-02-21T05:55:28;9.80;99.90
62998;DHT22;55949;52.590;7.330;2024-02-21T05:56:29;9.80;99.90
62998;DHT22;55949;52.590;7.330;2024-02-21T05:57:29;9.80;99.90
62998;DHT22;55949;52.590;7.330;2024-02-21T06:01:01;9.80;99.90
62998;DHT22;55949;52.590;7.330;2024-02-21T06:10:18;9.70;99.90
62998;DHT22;55949;52.590;7.330;2024-02-21T06:13:27;9.70;99.90
62998;DHT22;55949;52.590;7.330;2024-02-21T06:14:27;9.70;99.90
62998;DHT22;55949;52.590;7.330;2024-02-21T06:15:28;9.70;99.90
62998;DHT22;55949;52.590;7.330;2024-02-21T06:16:29;9.60;99.90
62998;DHT22;55949;52.590;7.330;2024-02-21T06:17:30;9.60;99.90
62998;DHT22;55949;52.590;7.330;2024-02-21T06:18:40;9.70;99.90
62998;DHT22;55949;52.590;7.330;2024-02-21T06:19:42;9.70;99.90
62998;DHT22;55949;52.590;7.330;2024-02-21T06:20:44;9.80;99.90
62998;DHT22;55949;52.590;7.330;2024-02-21T06:21:45;9.70;99.90
62998;DHT22;55949;52.590;7.330;2024-02-21T06:22:45;9.70;99.90
62998;DHT22;55949;52.590;7.330;2024-02-21T06:23:46;9.70;99.90
62998;DHT22;55949;52.590;7.330;2024-02-21T06:24:47;9.80;99.90
62998;DHT22;55949;52.590;7.330;2024-02-21T06:25:48;9.80;99.90
62998;DHT22;55949;52.590;7.330;2024-02-21T06:26:48;9.80;99.90
62998;DHT22;55949;52.590;7.330;2024-02-21T06:27:49;9.90;99.90
62998;DHT22;55949;52.590;7.330;2024-02-21T06:28:50;9.90;99.90
62998;DHT22;55949;52.590;7.330;2024-02-21T06:29:51;9.90;99.90
62998;DHT22;55949;52.590;7.330;2024-02-21T06:30:51;9.90;99.90
62998;DHT22;55949;52.590;7.330;2024-02-21T06:31:52;9.90;99.90
62998;DHT22;55949;52.590;7.330;2024-02-21T06:32:53;9.90;99.90
62998;DHT22;55949;52.590;7.330;2024-02-21T06:33:56;9.90;99.90
62998;DHT22;55949;52.590;7.330;2024-02-21T06:34:57;9.90;99.90
62998;DHT22;55949;52.590;7.330;2024-02-21T06:35:58;9.80;99.90
62998;DHT22;55949;52.590;7.330;2024-02-21T06:36:58;9.80;99.90
62998;DHT22;55949;52.590;7.330;2024-02-21T06:37:59;9.70;99.90
62998;DHT22;55949;52.590;7.330;2024-02-21T06:39:00;9.80;99.90
62998;DHT22;55949;52.590;7.330;2024-02-21T06:40:01;9.90;99.90
62998;DHT22;55949;52.590;7.330;2024-02-21T06:41:02;9.90;99.90
62998;DHT22;55949;52.590;7.330;2024-02-21T06:42:03;9.90;99.90
62998;DHT22;55949;52.590;7.330;2024-02-21T06:43:05;9.90;99.90
62998;DHT22;55949;52.590;7.330;2024-02-21T06:44:06;9.90;99.90
62998;DHT22;55949;52.590;7.330;2024-02-21T06:45:07;10.00;99.90
62998;DHT22;55949;52.590;7.330;2024-02-21T06:46:08;10.00;99.90
62998;DHT22;55949;52.590;7.330;2024-02-21T06:47:09;10.00;99.90